CAS weather

CLOSED Anfa Airport
Casablanca, Casablanca Province, Morocco

Public forecast

Using degrees Celsius for public forecast. Weather courtesy of forecast.io.

Current aviation weather report (METAR) for Anfa Airport

Retrieved 2019/12/16 12:00 UTC (36 minutes ago):

GMMC 161200Z 26027G47KT 8000 BKN016TCU 18/10 Q1004

Closest aviation forecast (TAF) to Anfa Airport

Closest forecast is Mohammed V International Airport, 11.7 nm (21.7 km) SSE. Retrieved 2019/12/16 12:18 UTC (18 minutes ago):

TAF GMMN 161100Z 1612/1718 20024KT 9999 FEW016 TEMPO 1616/1619 22014KT BECMG 1620/1622 22020G30KT TEMPO 1618/1718 3000 +RA BKN016 FEW026TCU